sensor_id;sensor_type;location;lat;lon;timestamp;P1;durP1;ratioP1;P2;durP2;ratioP2
28545;SDS011;15749;49.606;8.738;2023-07-13T00:00:39;1.50;;;1.20;;
28545;SDS011;15749;49.606;8.738;2023-07-13T00:03:34;1.20;;;0.87;;
28545;SDS011;15749;49.606;8.738;2023-07-13T00:06:04;1.33;;;0.87;;
28545;SDS011;15749;49.606;8.738;2023-07-13T00:08:34;1.80;;;0.90;;
28545;SDS011;15749;49.606;8.738;2023-07-13T00:11:05;1.00;;;0.83;;
28545;SDS011;15749;49.606;8.738;2023-07-13T00:13:35;1.00;;;0.87;;
28545;SDS011;15749;49.606;8.738;2023-07-13T00:16:06;1.10;;;1.00;;
28545;SDS011;15749;49.606;8.738;2023-07-13T00:18:38;1.73;;;1.00;;
28545;SDS011;15749;49.606;8.738;2023-07-13T00:21:07;4.33;;;0.90;;
28545;SDS011;15749;49.606;8.738;2023-07-13T00:23:38;0.90;;;0.80;;
28545;SDS011;15749;49.606;8.738;2023-07-13T00:26:11;2.47;;;0.93;;
28545;SDS011;15749;49.606;8.738;2023-07-13T00:28:41;1.03;;;0.90;;
28545;SDS011;15749;49.606;8.738;2023-07-13T00:31:11;1.07;;;0.90;;
28545;SDS011;15749;49.606;8.738;2023-07-13T00:33:42;0.83;;;0.80;;
28545;SDS011;15749;49.606;8.738;2023-07-13T00:36:13;1.23;;;0.80;;
28545;SDS011;15749;49.606;8.738;2023-07-13T00:38:43;1.23;;;1.00;;
28545;SDS011;15749;49.606;8.738;2023-07-13T00:41:14;1.27;;;0.97;;
28545;SDS011;15749;49.606;8.738;2023-07-13T00:43:44;1.37;;;1.00;;
28545;SDS011;15749;49.606;8.738;2023-07-13T00:46:15;1.23;;;1.10;;
28545;SDS011;15749;49.606;8.738;2023-07-13T00:48:52;1.57;;;1.00;;
28545;SDS011;15749;49.606;8.738;2023-07-13T00:51:27;1.00;;;0.90;;
28545;SDS011;15749;49.606;8.738;2023-07-13T00:54:03;1.37;;;1.00;;
28545;SDS011;15749;49.606;8.738;2023-07-13T00:56:37;1.00;;;0.90;;
28545;SDS011;15749;49.606;8.738;2023-07-13T00:59:08;1.63;;;0.80;;
28545;SDS011;15749;49.606;8.738;2023-07-13T01:02:04;0.90;;;0.90;;
28545;SDS011;15749;49.606;8.738;2023-07-13T01:04:34;0.70;;;0.70;;
28545;SDS011;15749;49.606;8.738;2023-07-13T01:07:06;1.47;;;0.83;;
28545;SDS011;15749;49.606;8.738;2023-07-13T01:09:36;0.70;;;0.70;;
28545;SDS011;15749;49.606;8.738;2023-07-13T01:12:08;0.97;;;0.97;;
28545;SDS011;15749;49.606;8.738;2023-07-13T01:14:37;0.80;;;0.80;;
28545;SDS011;15749;49.606;8.738;2023-07-13T01:17:08;1.53;;;0.80;;
28545;SDS011;15749;49.606;8.738;2023-07-13T01:19:40;2.10;;;0.90;;
28545;SDS011;15749;49.606;8.738;2023-07-13T01:22:14;0.90;;;0.90;;
28545;SDS011;15749;49.606;8.738;2023-07-13T01:25:05;0.87;;;0.87;;
28545;SDS011;15749;49.606;8.738;2023-07-13T01:27:35;0.73;;;0.73;;
28545;SDS011;15749;49.606;8.738;2023-07-13T01:30:09;2.00;;;1.00;;
28545;SDS011;15749;49.606;8.738;2023-07-13T01:32:40;1.47;;;1.03;;
28545;SDS011;15749;49.606;8.738;2023-07-13T01:35:10;1.07;;;0.97;;
28545;SDS011;15749;49.606;8.738;2023-07-13T01:37:41;1.00;;;1.00;;
28545;SDS011;15749;49.606;8.738;2023-07-13T01:40:12;1.00;;;0.90;;
28545;SDS011;15749;49.606;8.738;2023-07-13T01:42:42;0.97;;;0.97;;
28545;SDS011;15749;49.606;8.738;2023-07-13T01:45:12;1.00;;;1.00;;
28545;SDS011;15749;49.606;8.738;2023-07-13T01:47:42;0.97;;;0.90;;
28545;SDS011;15749;49.606;8.738;2023-07-13T01:50:12;1.07;;;1.07;;
28545;SDS011;15749;49.606;8.738;2023-07-13T01:52:43;0.90;;;0.80;;
28545;SDS011;15749;49.606;8.738;2023-07-13T01:55:14;1.00;;;1.00;;
28545;SDS011;15749;49.606;8.738;2023-07-13T01:57:43;1.37;;;1.07;;
28545;SDS011;15749;49.606;8.738;2023-07-13T02:00:14;1.27;;;0.90;;
28545;SDS011;15749;49.606;8.738;2023-07-13T02:02:47;1.97;;;1.03;;
28545;SDS011;15749;49.606;8.738;2023-07-13T02:05:17;1.30;;;1.20;;
28545;SDS011;15749;49.606;8.738;2023-07-13T02:07:49;0.93;;;0.93;;
28545;SDS011;15749;49.606;8.738;2023-07-13T02:10:20;1.27;;;1.00;;
28545;SDS011;15749;49.606;8.738;2023-07-13T02:12:50;0.90;;;0.90;;
28545;SDS011;15749;49.606;8.738;2023-07-13T02:15:20;2.00;;;1.10;;
28545;SDS011;15749;49.606;8.738;2023-07-13T02:17:49;1.37;;;1.03;;
28545;SDS011;15749;49.606;8.738;2023-07-13T02:20:19;1.57;;;1.23;;
28545;SDS011;15749;49.606;8.738;2023-07-13T02:22:50;1.10;;;1.00;;
28545;SDS011;15749;49.606;8.738;2023-07-13T02:25:21;1.20;;;1.10;;
28545;SDS011;15749;49.606;8.738;2023-07-13T02:27:50;2.23;;;0.90;;
28545;SDS011;15749;49.606;8.738;2023-07-13T02:30:20;0.70;;;0.70;;
28545;SDS011;15749;49.606;8.738;2023-07-13T02:32:54;1.10;;;1.00;;
28545;SDS011;15749;49.606;8.738;2023-07-13T02:35:23;0.80;;;0.80;;
28545;SDS011;15749;49.606;8.738;2023-07-13T02:37:54;1.10;;;0.90;;
28545;SDS011;15749;49.606;8.738;2023-07-13T02:40:24;1.30;;;1.00;;
28545;SDS011;15749;49.606;8.738;2023-07-13T02:42:54;1.20;;;1.10;;
28545;SDS011;15749;49.606;8.738;2023-07-13T02:45:23;1.20;;;1.10;;
28545;SDS011;15749;49.606;8.738;2023-07-13T02:47:53;1.00;;;0.90;;
28545;SDS011;15749;49.606;8.738;2023-07-13T02:50:22;1.13;;;1.03;;
28545;SDS011;15749;49.606;8.738;2023-07-13T02:52:52;1.83;;;1.00;;
28545;SDS011;15749;49.606;8.738;2023-07-13T02:55:23;3.03;;;1.10;;
28545;SDS011;15749;49.606;8.738;2023-07-13T02:57:53;1.53;;;1.03;;
28545;SDS011;15749;49.606;8.738;2023-07-13T03:00:22;2.40;;;1.20;;
28545;SDS011;15749;49.606;8.738;2023-07-13T03:02:52;0.90;;;0.90;;
28545;SDS011;15749;49.606;8.738;2023-07-13T03:05:25;1.97;;;1.03;;
28545;SDS011;15749;49.606;8.738;2023-07-13T03:07:58;1.93;;;0.90;;
28545;SDS011;15749;49.606;8.738;2023-07-13T03:10:29;1.00;;;1.00;;
28545;SDS011;15749;49.606;8.738;2023-07-13T03:12:59;1.20;;;1.10;;
28545;SDS011;15749;49.606;8.738;2023-07-13T03:15:29;1.40;;;1.30;;
28545;SDS011;15749;49.606;8.738;2023-07-13T03:17:59;1.30;;;1.20;;
28545;SDS011;15749;49.606;8.738;2023-07-13T03:20:31;1.20;;;1.10;;
28545;SDS011;15749;49.606;8.738;2023-07-13T03:23:03;1.30;;;1.20;;
28545;SDS011;15749;49.606;8.738;2023-07-13T03:25:33;1.03;;;1.03;;
28545;SDS011;15749;49.606;8.738;2023-07-13T03:28:03;1.20;;;1.10;;
28545;SDS011;15749;49.606;8.738;2023-07-13T03:30:33;0.90;;;0.90;;
28545;SDS011;15749;49.606;8.738;2023-07-13T03:33:03;1.20;;;1.10;;
28545;SDS011;15749;49.606;8.738;2023-07-13T03:35:35;1.60;;;1.50;;
28545;SDS011;15749;49.606;8.738;2023-07-13T03:38:10;1.30;;;1.20;;
28545;SDS011;15749;49.606;8.738;2023-07-13T03:40:40;1.30;;;1.20;;
28545;SDS011;15749;49.606;8.738;2023-07-13T03:43:11;1.43;;;1.10;;
28545;SDS011;15749;49.606;8.738;2023-07-13T03:45:41;1.00;;;0.90;;
28545;SDS011;15749;49.606;8.738;2023-07-13T03:48:11;0.93;;;0.93;;
28545;SDS011;15749;49.606;8.738;2023-07-13T03:50:41;1.73;;;0.90;;
28545;SDS011;15749;49.606;8.738;2023-07-13T03:53:12;1.43;;;1.20;;
28545;SDS011;15749;49.606;8.738;2023-07-13T03:55:42;1.00;;;1.00;;
28545;SDS011;15749;49.606;8.738;2023-07-13T03:58:27;0.97;;;0.93;;
28545;SDS011;15749;49.606;8.738;2023-07-13T04:01:10;1.23;;;1.00;;
28545;SDS011;15749;49.606;8.738;2023-07-13T04:03:42;1.30;;;1.20;;
28545;SDS011;15749;49.606;8.738;2023-07-13T04:06:15;1.53;;;1.20;;
28545;SDS011;15749;49.606;8.738;2023-07-13T04:08:51;0.90;;;0.90;;
28545;SDS011;15749;49.606;8.738;2023-07-13T04:11:23;1.13;;;1.00;;
28545;SDS011;15749;49.606;8.738;2023-07-13T04:13:55;1.37;;;1.27;;
28545;SDS011;15749;49.606;8.738;2023-07-13T04:16:25;1.70;;;1.40;;
28545;SDS011;15749;49.606;8.738;2023-07-13T04:18:55;1.37;;;1.10;;
28545;SDS011;15749;49.606;8.738;2023-07-13T04:21:28;1.40;;;1.00;;
28545;SDS011;15749;49.606;8.738;2023-07-13T04:24:01;1.50;;;0.97;;
28545;SDS011;15749;49.606;8.738;2023-07-13T04:26:32;2.40;;;1.10;;
28545;SDS011;15749;49.606;8.738;2023-07-13T04:29:03;1.63;;;1.40;;
28545;SDS011;15749;49.606;8.738;2023-07-13T04:31:33;1.20;;;1.10;;
28545;SDS011;15749;49.606;8.738;2023-07-13T04:34:04;0.90;;;0.90;;
28545;SDS011;15749;49.606;8.738;2023-07-13T04:36:34;1.13;;;1.00;;
28545;SDS011;15749;49.606;8.738;2023-07-13T04:39:06;1.57;;;1.20;;
28545;SDS011;15749;49.606;8.738;2023-07-13T04:41:36;1.10;;;1.00;;
28545;SDS011;15749;49.606;8.738;2023-07-13T04:44:06;2.37;;;0.97;;
28545;SDS011;15749;49.606;8.738;2023-07-13T04:46:36;1.20;;;1.10;;
28545;SDS011;15749;49.606;8.738;2023-07-13T04:49:06;2.23;;;1.30;;
28545;SDS011;15749;49.606;8.738;2023-07-13T04:51:35;1.00;;;0.80;;
28545;SDS011;15749;49.606;8.738;2023-07-13T04:54:06;0.97;;;0.90;;
28545;SDS011;15749;49.606;8.738;2023-07-13T04:56:36;1.73;;;1.10;;
28545;SDS011;15749;49.606;8.738;2023-07-13T04:59:05;1.17;;;1.13;;
28545;SDS011;15749;49.606;8.738;2023-07-13T05:01:34;0.97;;;0.90;;
28545;SDS011;15749;49.606;8.738;2023-07-13T05:04:04;0.90;;;0.90;;
28545;SDS011;15749;49.606;8.738;2023-07-13T05:06:33;1.20;;;1.10;;
28545;SDS011;15749;49.606;8.738;2023-07-13T05:09:03;1.00;;;1.00;;
28545;SDS011;15749;49.606;8.738;2023-07-13T05:11:34;1.33;;;1.10;;
28545;SDS011;15749;49.606;8.738;2023-07-13T05:14:04;1.60;;;1.20;;
28545;SDS011;15749;49.606;8.738;2023-07-13T05:16:33;1.47;;;1.33;;
28545;SDS011;15749;49.606;8.738;2023-07-13T05:19:03;1.37;;;1.27;;
28545;SDS011;15749;49.606;8.738;2023-07-13T05:21:32;2.03;;;1.40;;
28545;SDS011;15749;49.606;8.738;2023-07-13T05:24:02;1.63;;;1.53;;
28545;SDS011;15749;49.606;8.738;2023-07-13T05:26:47;1.40;;;1.30;;
28545;SDS011;15749;49.606;8.738;2023-07-13T05:29:16;1.30;;;1.20;;
28545;SDS011;15749;49.606;8.738;2023-07-13T05:31:46;1.10;;;1.10;;
28545;SDS011;15749;49.606;8.738;2023-07-13T05:34:15;1.40;;;1.20;;
28545;SDS011;15749;49.606;8.738;2023-07-13T05:36:45;1.40;;;1.20;;
28545;SDS011;15749;49.606;8.738;2023-07-13T05:39:14;2.83;;;1.30;;
28545;SDS011;15749;49.606;8.738;2023-07-13T05:41:44;1.30;;;1.20;;
28545;SDS011;15749;49.606;8.738;2023-07-13T05:44:15;1.10;;;1.00;;
28545;SDS011;15749;49.606;8.738;2023-07-13T05:46:44;2.33;;;1.13;;
28545;SDS011;15749;49.606;8.738;2023-07-13T05:49:14;1.60;;;1.50;;
28545;SDS011;15749;49.606;8.738;2023-07-13T05:51:44;1.40;;;1.30;;
28545;SDS011;15749;49.606;8.738;2023-07-13T05:54:13;1.70;;;1.47;;
28545;SDS011;15749;49.606;8.738;2023-07-13T05:56:42;1.40;;;1.30;;
28545;SDS011;15749;49.606;8.738;2023-07-13T05:59:12;2.00;;;1.40;;
28545;SDS011;15749;49.606;8.738;2023-07-13T06:01:43;1.30;;;1.17;;
28545;SDS011;15749;49.606;8.738;2023-07-13T06:04:12;1.50;;;1.40;;
28545;SDS011;15749;49.606;8.738;2023-07-13T06:06:42;1.50;;;1.40;;
28545;SDS011;15749;49.606;8.738;2023-07-13T06:09:11;1.50;;;1.40;;
28545;SDS011;15749;49.606;8.738;2023-07-13T06:11:42;1.23;;;1.13;;
28545;SDS011;15749;49.606;8.738;2023-07-13T06:14:12;1.60;;;1.20;;
28545;SDS011;15749;49.606;8.738;2023-07-13T06:16:43;1.37;;;1.27;;
28545;SDS011;15749;49.606;8.738;2023-07-13T06:19:13;1.83;;;1.40;;
28545;SDS011;15749;49.606;8.738;2023-07-13T06:21:42;1.70;;;1.20;;
28545;SDS011;15749;49.606;8.738;2023-07-13T06:24:11;1.33;;;1.23;;
28545;SDS011;15749;49.606;8.738;2023-07-13T06:26:41;1.80;;;1.47;;
28545;SDS011;15749;49.606;8.738;2023-07-13T06:29:10;1.87;;;1.53;;
28545;SDS011;15749;49.606;8.738;2023-07-13T06:31:40;1.77;;;1.43;;
28545;SDS011;15749;49.606;8.738;2023-07-13T06:34:11;1.57;;;1.40;;
28545;SDS011;15749;49.606;8.738;2023-07-13T06:36:42;1.73;;;1.60;;
28545;SDS011;15749;49.606;8.738;2023-07-13T06:39:12;3.97;;;1.83;;
28545;SDS011;15749;49.606;8.738;2023-07-13T06:41:42;1.50;;;1.40;;
28545;SDS011;15749;49.606;8.738;2023-07-13T06:44:13;3.07;;;1.40;;
28545;SDS011;15749;49.606;8.738;2023-07-13T06:46:43;1.53;;;1.20;;
28545;SDS011;15749;49.606;8.738;2023-07-13T06:49:16;1.30;;;1.20;;
28545;SDS011;15749;49.606;8.738;2023-07-13T06:51:45;2.00;;;1.33;;
28545;SDS011;15749;49.606;8.738;2023-07-13T06:54:15;1.63;;;1.43;;
28545;SDS011;15749;49.606;8.738;2023-07-13T06:56:44;1.70;;;1.30;;
28545;SDS011;15749;49.606;8.738;2023-07-13T06:59:13;2.57;;;1.23;;
28545;SDS011;15749;49.606;8.738;2023-07-13T07:01:44;1.87;;;1.20;;
28545;SDS011;15749;49.606;8.738;2023-07-13T07:04:15;1.37;;;1.03;;
28545;SDS011;15749;49.606;8.738;2023-07-13T07:06:45;1.27;;;1.10;;
28545;SDS011;15749;49.606;8.738;2023-07-13T07:09:14;1.20;;;1.10;;
28545;SDS011;15749;49.606;8.738;2023-07-13T07:11:44;1.23;;;0.90;;
28545;SDS011;15749;49.606;8.738;2023-07-13T07:14:29;1.23;;;0.97;;
28545;SDS011;15749;49.606;8.738;2023-07-13T07:16:59;1.10;;;0.80;;
28545;SDS011;15749;49.606;8.738;2023-07-13T07:19:30;1.63;;;1.00;;
28545;SDS011;15749;49.606;8.738;2023-07-13T07:22:00;1.00;;;0.90;;
28545;SDS011;15749;49.606;8.738;2023-07-13T07:24:29;1.87;;;1.10;;
28545;SDS011;15749;49.606;8.738;2023-07-13T07:26:59;1.20;;;0.73;;
28545;SDS011;15749;49.606;8.738;2023-07-13T07:29:31;0.80;;;0.80;;
28545;SDS011;15749;49.606;8.738;2023-07-13T07:32:04;2.23;;;1.00;;
28545;SDS011;15749;49.606;8.738;2023-07-13T07:34:46;1.57;;;1.00;;
28545;SDS011;15749;49.606;8.738;2023-07-13T07:37:15;0.93;;;0.80;;
28545;SDS011;15749;49.606;8.738;2023-07-13T07:39:48;1.27;;;0.90;;
28545;SDS011;15749;49.606;8.738;2023-07-13T07:42:37;1.47;;;0.90;;
28545;SDS011;15749;49.606;8.738;2023-07-13T07:45:07;1.00;;;0.90;;
28545;SDS011;15749;49.606;8.738;2023-07-13T07:47:39;2.40;;;0.97;;
28545;SDS011;15749;49.606;8.738;2023-07-13T07:50:10;3.90;;;1.10;;
28545;SDS011;15749;49.606;8.738;2023-07-13T07:52:39;1.50;;;1.20;;
28545;SDS011;15749;49.606;8.738;2023-07-13T07:55:09;1.97;;;1.17;;
28545;SDS011;15749;49.606;8.738;2023-07-13T07:57:41;2.60;;;0.90;;
28545;SDS011;15749;49.606;8.738;2023-07-13T08:00:15;3.33;;;1.00;;
28545;SDS011;15749;49.606;8.738;2023-07-13T08:02:48;1.10;;;1.00;;
28545;SDS011;15749;49.606;8.738;2023-07-13T08:05:22;1.40;;;1.30;;
28545;SDS011;15749;49.606;8.738;2023-07-13T08:08:09;1.47;;;1.20;;
28545;SDS011;15749;49.606;8.738;2023-07-13T08:10:38;1.60;;;1.37;;
28545;SDS011;15749;49.606;8.738;2023-07-13T08:13:07;1.40;;;1.30;;
28545;SDS011;15749;49.606;8.738;2023-07-13T08:15:38;1.40;;;1.20;;
28545;SDS011;15749;49.606;8.738;2023-07-13T08:18:08;1.50;;;1.07;;
28545;SDS011;15749;49.606;8.738;2023-07-13T08:20:39;1.40;;;1.30;;
28545;SDS011;15749;49.606;8.738;2023-07-13T08:23:09;4.40;;;1.50;;
28545;SDS011;15749;49.606;8.738;2023-07-13T08:25:40;2.40;;;1.30;;
28545;SDS011;15749;49.606;8.738;2023-07-13T08:28:09;1.55;;;1.25;;
28545;SDS011;15749;49.606;8.738;2023-07-13T08:30:39;2.23;;;1.40;;
28545;SDS011;15749;49.606;8.738;2023-07-13T08:33:08;1.83;;;1.50;;
28545;SDS011;15749;49.606;8.738;2023-07-13T08:35:39;1.50;;;1.30;;
28545;SDS011;15749;49.606;8.738;2023-07-13T08:38:08;2.93;;;1.50;;
28545;SDS011;15749;49.606;8.738;2023-07-13T08:40:38;1.30;;;1.20;;
28545;SDS011;15749;49.606;8.738;2023-07-13T08:43:13;1.93;;;1.30;;
28545;SDS011;15749;49.606;8.738;2023-07-13T08:45:47;2.08;;;1.27;;
28545;SDS011;15749;49.606;8.738;2023-07-13T08:48:21;2.37;;;1.20;;
28545;SDS011;15749;49.606;8.738;2023-07-13T08:50:57;1.50;;;1.20;;
28545;SDS011;15749;49.606;8.738;2023-07-13T08:53:34;1.48;;;1.10;;
28545;SDS011;15749;49.606;8.738;2023-07-13T08:56:09;1.60;;;1.30;;
28545;SDS011;15749;49.606;8.738;2023-07-13T08:58:46;1.42;;;1.10;;
28545;SDS011;15749;49.606;8.738;2023-07-13T09:01:24;1.83;;;1.20;;
28545;SDS011;15749;49.606;8.738;2023-07-13T09:04:03;2.78;;;1.20;;
28545;SDS011;15749;49.606;8.738;2023-07-13T09:06:42;1.85;;;1.10;;
28545;SDS011;15749;49.606;8.738;2023-07-13T09:09:36;1.97;;;1.23;;
28545;SDS011;15749;49.606;8.738;2023-07-13T09:12:22;9.38;;;1.58;;
28545;SDS011;15749;49.606;8.738;2023-07-13T09:15:01;1.70;;;1.20;;
28545;SDS011;15749;49.606;8.738;2023-07-13T09:17:33;1.33;;;0.90;;
28545;SDS011;15749;49.606;8.738;2023-07-13T09:20:22;1.67;;;1.05;;
28545;SDS011;15749;49.606;8.738;2023-07-13T09:22:57;1.50;;;1.25;;
28545;SDS011;15749;49.606;8.738;2023-07-13T09:25:32;1.50;;;1.13;;
28545;SDS011;15749;49.606;8.738;2023-07-13T09:28:10;1.67;;;1.27;;
28545;SDS011;15749;49.606;8.738;2023-07-13T09:30:45;1.85;;;0.98;;
28545;SDS011;15749;49.606;8.738;2023-07-13T09:33:21;2.05;;;1.25;;
28545;SDS011;15749;49.606;8.738;2023-07-13T09:35:51;1.48;;;1.10;;
28545;SDS011;15749;49.606;8.738;2023-07-13T09:38:25;0.98;;;0.88;;
28545;SDS011;15749;49.606;8.738;2023-07-13T09:40:59;1.05;;;0.93;;
28545;SDS011;15749;49.606;8.738;2023-07-13T09:46:38;1.35;;;1.10;;
28545;SDS011;15749;49.606;8.738;2023-07-13T09:49:13;3.45;;;1.30;;
28545;SDS011;15749;49.606;8.738;2023-07-13T09:51:42;3.72;;;1.10;;
28545;SDS011;15749;49.606;8.738;2023-07-13T09:54:21;1.45;;;1.20;;
28545;SDS011;15749;49.606;8.738;2023-07-13T09:56:54;1.25;;;1.00;;
28545;SDS011;15749;49.606;8.738;2023-07-13T09:59:27;2.58;;;1.02;;
28545;SDS011;15749;49.606;8.738;2023-07-13T10:02:01;1.52;;;1.13;;
28545;SDS011;15749;49.606;8.738;2023-07-13T10:04:32;0.82;;;0.80;;
28545;SDS011;15749;49.606;8.738;2023-07-13T10:07:06;1.13;;;0.82;;
28545;SDS011;15749;49.606;8.738;2023-07-13T10:09:58;1.33;;;1.05;;
28545;SDS011;15749;49.606;8.738;2023-07-13T10:12:30;1.45;;;1.02;;
28545;SDS011;15749;49.606;8.738;2023-07-13T10:15:07;1.25;;;1.08;;
28545;SDS011;15749;49.606;8.738;2023-07-13T10:17:51;1.77;;;1.00;;
28545;SDS011;15749;49.606;8.738;2023-07-13T10:20:23;1.40;;;1.00;;
28545;SDS011;15749;49.606;8.738;2023-07-13T10:22:54;1.70;;;0.88;;
28545;SDS011;15749;49.606;8.738;2023-07-13T10:25:31;0.98;;;0.93;;
28545;SDS011;15749;49.606;8.738;2023-07-13T10:28:03;1.23;;;0.90;;
28545;SDS011;15749;49.606;8.738;2023-07-13T10:30:49;1.65;;;0.82;;
28545;SDS011;15749;49.606;8.738;2023-07-13T10:33:22;1.33;;;1.00;;
28545;SDS011;15749;49.606;8.738;2023-07-13T10:35:52;1.30;;;0.80;;
28545;SDS011;15749;49.606;8.738;2023-07-13T10:38:30;0.77;;;0.75;;
28545;SDS011;15749;49.606;8.738;2023-07-13T10:41:03;2.42;;;1.10;;
28545;SDS011;15749;49.606;8.738;2023-07-13T10:43:39;0.77;;;0.77;;
28545;SDS011;15749;49.606;8.738;2023-07-13T10:46:12;1.13;;;1.02;;
28545;SDS011;15749;49.606;8.738;2023-07-13T10:48:45;1.50;;;1.10;;
28545;SDS011;15749;49.606;8.738;2023-07-13T10:51:18;1.38;;;1.00;;
28545;SDS011;15749;49.606;8.738;2023-07-13T10:57:06;1.77;;;0.73;;
28545;SDS011;15749;49.606;8.738;2023-07-13T10:59:48;2.33;;;1.10;;
28545;SDS011;15749;49.606;8.738;2023-07-13T11:02:43;1.60;;;0.93;;
28545;SDS011;15749;49.606;8.738;2023-07-13T11:05:26;0.95;;;0.88;;
28545;SDS011;15749;49.606;8.738;2023-07-13T11:08:03;1.27;;;0.90;;
28545;SDS011;15749;49.606;8.738;2023-07-13T11:10:51;1.30;;;1.20;;
28545;SDS011;15749;49.606;8.738;2023-07-13T11:13:37;1.80;;;0.80;;
28545;SDS011;15749;49.606;8.738;2023-07-13T11:22:16;1.08;;;0.80;;
28545;SDS011;15749;49.606;8.738;2023-07-13T11:24:59;1.10;;;0.80;;
28545;SDS011;15749;49.606;8.738;2023-07-13T11:27:36;1.00;;;0.70;;
28545;SDS011;15749;49.606;8.738;2023-07-13T11:30:25;0.77;;;0.70;;
28545;SDS011;15749;49.606;8.738;2023-07-13T11:33:09;1.30;;;0.93;;
28545;SDS011;15749;49.606;8.738;2023-07-13T11:36:03;4.63;;;1.17;;
28545;SDS011;15749;49.606;8.738;2023-07-13T11:38:37;1.70;;;1.10;;
28545;SDS011;15749;49.606;8.738;2023-07-13T11:41:13;2.10;;;1.00;;
28545;SDS011;15749;49.606;8.738;2023-07-13T11:43:47;1.67;;;0.70;;
28545;SDS011;15749;49.606;8.738;2023-07-13T11:46:20;1.20;;;0.80;;
28545;SDS011;15749;49.606;8.738;2023-07-13T11:48:52;1.73;;;0.85;;
28545;SDS011;15749;49.606;8.738;2023-07-13T11:51:22;0.90;;;0.90;;
28545;SDS011;15749;49.606;8.738;2023-07-13T11:53:55;0.80;;;0.80;;
28545;SDS011;15749;49.606;8.738;2023-07-13T11:56:28;3.65;;;0.98;;
28545;SDS011;15749;49.606;8.738;2023-07-13T11:59:04;3.08;;;1.08;;
28545;SDS011;15749;49.606;8.738;2023-07-13T12:01:38;1.38;;;1.08;;
28545;SDS011;15749;49.606;8.738;2023-07-13T12:04:23;1.20;;;1.10;;
28545;SDS011;15749;49.606;8.738;2023-07-13T12:06:56;1.08;;;0.98;;
28545;SDS011;15749;49.606;8.738;2023-07-13T12:09:33;1.15;;;1.00;;
28545;SDS011;15749;49.606;8.738;2023-07-13T12:12:08;0.75;;;0.75;;
28545;SDS011;15749;49.606;8.738;2023-07-13T12:14:40;1.10;;;0.80;;
28545;SDS011;15749;49.606;8.738;2023-07-13T12:17:15;2.60;;;1.00;;
28545;SDS011;15749;49.606;8.738;2023-07-13T12:19:47;0.88;;;0.82;;
28545;SDS011;15749;49.606;8.738;2023-07-13T12:22:17;1.40;;;1.00;;
28545;SDS011;15749;49.606;8.738;2023-07-13T12:24:53;1.35;;;1.00;;
28545;SDS011;15749;49.606;8.738;2023-07-13T12:27:23;2.72;;;1.00;;
28545;SDS011;15749;49.606;8.738;2023-07-13T12:29:58;1.35;;;1.08;;
28545;SDS011;15749;49.606;8.738;2023-07-13T12:32:36;1.55;;;1.02;;
28545;SDS011;15749;49.606;8.738;2023-07-13T12:35:13;1.10;;;1.00;;
28545;SDS011;15749;49.606;8.738;2023-07-13T12:37:50;2.33;;;1.20;;
28545;SDS011;15749;49.606;8.738;2023-07-13T12:40:20;3.40;;;1.10;;
28545;SDS011;15749;49.606;8.738;2023-07-13T12:42:54;2.28;;;0.95;;
28545;SDS011;15749;49.606;8.738;2023-07-13T12:45:24;0.88;;;0.75;;
28545;SDS011;15749;49.606;8.738;2023-07-13T12:47:58;1.17;;;0.80;;
28545;SDS011;15749;49.606;8.738;2023-07-13T12:50:34;1.80;;;1.10;;
28545;SDS011;15749;49.606;8.738;2023-07-13T12:53:10;2.35;;;1.17;;
28545;SDS011;15749;49.606;8.738;2023-07-13T12:55:43;2.05;;;1.23;;
28545;SDS011;15749;49.606;8.738;2023-07-13T12:58:17;0.80;;;0.80;;
28545;SDS011;15749;49.606;8.738;2023-07-13T13:00:54;1.40;;;0.70;;
28545;SDS011;15749;49.606;8.738;2023-07-13T13:03:30;1.30;;;1.20;;
28545;SDS011;15749;49.606;8.738;2023-07-13T13:06:02;1.25;;;1.10;;
28545;SDS011;15749;49.606;8.738;2023-07-13T13:08:33;2.38;;;1.10;;
28545;SDS011;15749;49.606;8.738;2023-07-13T13:11:04;2.00;;;1.10;;
28545;SDS011;15749;49.606;8.738;2023-07-13T13:13:33;2.53;;;1.20;;
28545;SDS011;15749;49.606;8.738;2023-07-13T13:16:08;1.58;;;1.08;;
28545;SDS011;15749;49.606;8.738;2023-07-13T13:18:50;2.78;;;1.20;;
28545;SDS011;15749;49.606;8.738;2023-07-13T13:21:22;1.20;;;0.95;;
28545;SDS011;15749;49.606;8.738;2023-07-13T13:23:52;1.38;;;1.00;;
28545;SDS011;15749;49.606;8.738;2023-07-13T13:26:22;0.80;;;0.80;;
28545;SDS011;15749;49.606;8.738;2023-07-13T13:28:51;1.95;;;0.90;;
28545;SDS011;15749;49.606;8.738;2023-07-13T13:31:20;0.88;;;0.88;;
28545;SDS011;15749;49.606;8.738;2023-07-13T13:33:51;2.45;;;1.00;;
28545;SDS011;15749;49.606;8.738;2023-07-13T13:36:21;1.40;;;1.02;;
28545;SDS011;15749;49.606;8.738;2023-07-13T13:38:51;2.17;;;1.10;;
28545;SDS011;15749;49.606;8.738;2023-07-13T13:41:20;3.97;;;1.40;;
28545;SDS011;15749;49.606;8.738;2023-07-13T13:43:49;1.20;;;1.10;;
28545;SDS011;15749;49.606;8.738;2023-07-13T13:46:19;2.13;;;1.00;;
28545;SDS011;15749;49.606;8.738;2023-07-13T13:48:53;1.10;;;0.90;;
28545;SDS011;15749;49.606;8.738;2023-07-13T13:51:25;3.20;;;1.30;;
28545;SDS011;15749;49.606;8.738;2023-07-13T13:53:55;1.77;;;1.00;;
28545;SDS011;15749;49.606;8.738;2023-07-13T13:56:24;2.17;;;1.10;;
28545;SDS011;15749;49.606;8.738;2023-07-13T13:58:54;1.60;;;1.00;;
28545;SDS011;15749;49.606;8.738;2023-07-13T14:01:26;2.03;;;1.30;;
28545;SDS011;15749;49.606;8.738;2023-07-13T14:03:58;1.52;;;0.88;;
28545;SDS011;15749;49.606;8.738;2023-07-13T14:06:29;1.10;;;1.00;;
28545;SDS011;15749;49.606;8.738;2023-07-13T14:08:59;2.35;;;1.02;;
28545;SDS011;15749;49.606;8.738;2023-07-13T14:11:29;1.13;;;0.80;;
28545;SDS011;15749;49.606;8.738;2023-07-13T14:14:00;1.25;;;0.90;;
28545;SDS011;15749;49.606;8.738;2023-07-13T14:16:31;1.40;;;1.00;;
28545;SDS011;15749;49.606;8.738;2023-07-13T14:19:03;1.00;;;0.90;;
28545;SDS011;15749;49.606;8.738;2023-07-13T14:21:32;1.95;;;1.10;;
28545;SDS011;15749;49.606;8.738;2023-07-13T14:24:01;1.95;;;0.80;;
28545;SDS011;15749;49.606;8.738;2023-07-13T14:26:32;1.20;;;1.10;;
28545;SDS011;15749;49.606;8.738;2023-07-13T14:29:11;1.35;;;1.02;;
28545;SDS011;15749;49.606;8.738;2023-07-13T14:31:44;2.35;;;1.00;;
28545;SDS011;15749;49.606;8.738;2023-07-13T14:34:15;2.55;;;0.80;;
28545;SDS011;15749;49.606;8.738;2023-07-13T14:36:45;1.05;;;0.85;;
28545;SDS011;15749;49.606;8.738;2023-07-13T14:39:18;1.50;;;0.95;;
28545;SDS011;15749;49.606;8.738;2023-07-13T14:41:50;1.30;;;0.90;;
28545;SDS011;15749;49.606;8.738;2023-07-13T14:44:21;0.95;;;0.85;;
28545;SDS011;15749;49.606;8.738;2023-07-13T14:46:56;1.20;;;0.80;;
28545;SDS011;15749;49.606;8.738;2023-07-13T14:49:29;1.67;;;0.98;;
28545;SDS011;15749;49.606;8.738;2023-07-13T14:52:01;1.30;;;1.00;;
28545;SDS011;15749;49.606;8.738;2023-07-13T14:54:39;2.10;;;1.17;;
28545;SDS011;15749;49.606;8.738;2023-07-13T14:57:10;3.15;;;0.95;;
28545;SDS011;15749;49.606;8.738;2023-07-13T14:59:40;1.85;;;0.93;;
28545;SDS011;15749;49.606;8.738;2023-07-13T15:02:13;2.28;;;0.90;;
28545;SDS011;15749;49.606;8.738;2023-07-13T15:04:47;2.88;;;1.00;;
28545;SDS011;15749;49.606;8.738;2023-07-13T15:07:16;0.93;;;0.90;;
28545;SDS011;15749;49.606;8.738;2023-07-13T15:09:46;2.83;;;1.00;;
28545;SDS011;15749;49.606;8.738;2023-07-13T15:12:15;0.90;;;0.85;;
28545;SDS011;15749;49.606;8.738;2023-07-13T15:14:45;1.50;;;1.08;;
28545;SDS011;15749;49.606;8.738;2023-07-13T15:17:18;1.20;;;1.00;;
28545;SDS011;15749;49.606;8.738;2023-07-13T15:19:57;1.23;;;0.90;;
28545;SDS011;15749;49.606;8.738;2023-07-13T15:22:26;2.50;;;0.82;;
28545;SDS011;15749;49.606;8.738;2023-07-13T15:24:55;1.85;;;1.00;;
28545;SDS011;15749;49.606;8.738;2023-07-13T15:27:28;1.10;;;0.90;;
28545;SDS011;15749;49.606;8.738;2023-07-13T15:29:58;2.22;;;0.90;;
28545;SDS011;15749;49.606;8.738;2023-07-13T15:32:28;1.40;;;1.13;;